Time;durP1;ratioP1;P1;durP2;ratioP2;P2;SDS_P1;SDS_P2;PMS_P1;PMS_P2;Temp;Humidity;BMP_temperature;BMP_pressure;BME280_temperature;BME280_humidity;BME280_pressure;Samples;Min_cycle;Max_cycle;Signal;HPM_P1;HPM_P2
2022/12/30 00:00:26;;;;;;;8.55;2.22;;;8.60;99.90;;;;;;5022730;28;20058;-70
2022/12/30 00:02:52;;;;;;;15.43;2.30;;;8.50;99.90;;;;;;4992598;28;20603;-73
2022/12/30 00:05:18;;;;;;;12.85;2.58;;;8.50;99.90;;;;;;5002499;28;20038;-72
2022/12/30 00:07:43;;;;;;;18.80;3.05;;;8.50;99.90;;;;;;4989495;28;20053;-71
2022/12/30 00:10:09;;;;;;;12.93;2.30;;;8.50;99.90;;;;;;4992670;28;20072;-70
2022/12/30 00:35:11;;;;;;;8.77;2.38;;;8.50;99.90;;;;;;4994981;28;20125;-70
2022/12/30 00:37:36;;;;;;;18.73;3.35;;;8.50;99.90;;;;;;4976630;28;20056;-70
2022/12/30 00:40:02;;;;;;;10.25;2.45;;;8.50;99.90;;;;;;5039076;28;20135;-70
2022/12/30 00:45:12;;;;;;;12.23;2.42;;;8.50;99.90;;;;;;4997816;28;20526;-70
2022/12/30 00:47:38;;;;;;;13.60;2.15;;;8.50;99.90;;;;;;4996027;28;20156;-70
2022/12/30 00:58:21;;;;;;;12.30;2.50;;;8.50;99.90;;;;;;5003726;28;20154;-69
2022/12/30 01:00:47;;;;;;;17.00;3.38;;;8.50;99.90;;;;;;5009267;28;20054;-70
2022/12/30 01:03:13;;;;;;;15.80;3.17;;;8.50;99.90;;;;;;4994080;28;20044;-70
2022/12/30 01:05:39;;;;;;;14.52;2.80;;;8.50;99.90;;;;;;4992762;28;20088;-70
2022/12/30 01:08:05;;;;;;;13.00;3.08;;;8.50;99.90;;;;;;4991696;28;20058;-70
2022/12/30 01:10:31;;;;;;;11.30;2.15;;;8.50;99.90;;;;;;5004540;28;20054;-72
2022/12/30 01:12:58;;;;;;;10.70;2.65;;;8.50;99.90;;;;;;4979155;28;20128;-71
2022/12/30 01:15:23;;;;;;;11.65;2.10;;;8.40;99.90;;;;;;5001351;28;20100;-70
2022/12/30 01:17:49;;;;;;;13.38;2.50;;;8.40;99.90;;;;;;4991655;28;20062;-70
2022/12/30 01:20:15;;;;;;;13.63;2.33;;;8.40;99.90;;;;;;5023811;28;20050;-70
2022/12/30 01:22:40;;;;;;;14.13;2.70;;;8.40;99.90;;;;;;5033229;28;20052;-70
2022/12/30 01:25:07;;;;;;;17.02;2.72;;;8.40;99.90;;;;;;5018868;28;20045;-71
2022/12/30 01:27:32;;;;;;;8.98;2.63;;;8.40;99.90;;;;;;4989889;28;20101;-71
2022/12/30 01:29:58;;;;;;;13.27;2.70;;;8.40;99.90;;;;;;4987519;28;20086;-71
2022/12/30 01:32:24;;;;;;;11.65;2.65;;;8.40;99.90;;;;;;5019086;28;20042;-70
2022/12/30 01:34:54;;;;;;;10.35;2.53;;;8.40;99.90;;;;;;4982554;28;20038;-70
2022/12/30 01:37:20;;;;;;;12.70;2.85;;;8.40;99.90;;;;;;4991519;28;20042;-70
2022/12/30 01:39:46;;;;;;;11.38;2.33;;;8.40;99.90;;;;;;4996601;28;20038;-70
2022/12/30 01:42:23;;;;;;;15.50;2.78;;;8.40;99.90;;;;;;5043104;28;20115;-72
2022/12/30 01:44:49;;;;;;;15.32;2.28;;;8.40;99.90;;;;;;4973900;28;20149;-72
2022/12/30 01:47:22;;;;;;;12.05;2.08;;;8.40;99.90;;;;;;4994290;28;20046;-70
2022/12/30 01:49:49;;;;;;;16.30;2.67;;;8.40;99.90;;;;;;5042117;28;20046;-71
2022/12/30 01:52:15;;;;;;;12.45;2.05;;;8.40;99.90;;;;;;4995009;28;20049;-70
2022/12/30 01:54:40;;;;;;;13.85;2.30;;;8.40;99.90;;;;;;4999246;28;20815;-70
2022/12/30 01:57:06;;;;;;;10.50;2.28;;;8.40;99.90;;;;;;5002438;28;20041;-70
2022/12/30 01:59:32;;;;;;;13.43;2.60;;;8.40;99.90;;;;;;5031137;28;20122;-71
2022/12/30 02:01:58;;;;;;;13.35;2.08;;;8.40;99.90;;;;;;5024954;28;20062;-70
2022/12/30 02:04:24;;;;;;;19.20;2.97;;;8.40;99.90;;;;;;5001290;28;20068;-70
2022/12/30 02:07:11;;;;;;;22.20;2.60;;;8.40;99.90;;;;;;5023012;28;20046;-71
2022/12/30 02:09:37;;;;;;;14.13;2.88;;;8.40;99.90;;;;;;4985717;28;20137;-70
2022/12/30 02:12:04;;;;;;;14.23;2.78;;;8.40;99.90;;;;;;4999503;28;21491;-70
2022/12/30 02:14:30;;;;;;;13.57;3.20;;;8.30;99.90;;;;;;5043313;28;20115;-70
2022/12/30 02:16:56;;;;;;;13.75;2.42;;;8.30;99.90;;;;;;5003024;28;20528;-70
2022/12/30 02:19:21;;;;;;;9.98;2.60;;;8.30;99.90;;;;;;4990131;28;20717;-70
2022/12/30 02:22:01;;;;;;;15.38;2.50;;;8.30;99.90;;;;;;4996045;28;20412;-71
2022/12/30 02:24:27;;;;;;;11.93;2.30;;;8.30;99.90;;;;;;5016784;28;20456;-71
2022/12/30 02:27:43;;;;;;;11.05;2.13;;;8.30;99.90;;;;;;4988937;28;20053;-71
2022/12/30 02:30:11;;;;;;;12.02;2.00;;;8.20;99.90;;;;;;4993414;28;20038;-70
2022/12/30 02:32:49;;;;;;;;;;;8.20;99.90;;;;;;5022597;28;20038;-70
2022/12/30 02:35:24;;;;;;;11.85;2.20;;;8.30;99.90;;;;;;4993961;28;19914;-70
2022/12/30 02:38:11;;;;;;;10.80;2.30;;;8.30;99.90;;;;;;5028567;28;20037;-70
2022/12/30 02:46:15;;;;;;;10.82;2.30;;;8.30;99.90;;;;;;4994214;28;20145;-70
2022/12/30 02:48:45;;;;;;;12.13;3.30;;;8.30;99.90;;;;;;4986742;28;20196;-69
2022/12/30 02:53:54;;;;;;;12.25;2.90;;;8.30;99.90;;;;;;4986848;28;20133;-70
2022/12/30 02:56:20;;;;;;;17.77;2.60;;;8.30;99.90;;;;;;4994184;28;20505;-70
2022/12/30 02:58:48;;;;;;;14.18;2.60;;;8.30;99.90;;;;;;4990603;28;20053;-70
2022/12/30 03:04:53;;;;;;;10.55;2.35;;;8.20;99.90;;;;;;4984929;28;20138;-70
2022/12/30 03:07:25;;;;;;;10.25;2.72;;;8.20;99.90;;;;;;5002435;28;20077;-70
2022/12/30 03:13:18;;;;;;;10.02;2.42;;;8.30;99.90;;;;;;4976126;28;20873;-71
2022/12/30 03:15:59;;;;;;;16.15;3.03;;;8.20;99.90;;;;;;4975309;28;20053;-70
2022/12/30 03:18:25;;;;;;;16.10;2.55;;;8.20;99.90;;;;;;4989305;28;20042;-70
2022/12/30 03:20:51;;;;;;;7.95;2.30;;;8.30;99.90;;;;;;4994384;28;20057;-70
2022/12/30 03:28:48;;;;;;;11.95;3.28;;;8.20;99.90;;;;;;4986375;28;20498;-71
2022/12/30 03:31:15;;;;;;;18.27;2.70;;;8.30;99.90;;;;;;4998713;28;20054;-70
2022/12/30 03:33:41;;;;;;;14.23;3.20;;;8.30;99.90;;;;;;4992981;28;20410;-70
2022/12/30 03:36:22;;;;;;;15.05;2.92;;;8.20;99.90;;;;;;4991790;28;20050;-70
2022/12/30 03:38:59;;;;;;;14.88;3.15;;;8.20;99.90;;;;;;5020879;28;20053;-70
2022/12/30 03:41:25;;;;;;;11.45;2.97;;;8.30;99.90;;;;;;4987097;28;20384;-71
2022/12/30 03:43:51;;;;;;;15.73;2.88;;;8.20;99.90;;;;;;4986999;28;20046;-70
2022/12/30 03:46:19;;;;;;;10.95;2.50;;;8.20;99.90;;;;;;4992645;28;20038;-71
2022/12/30 03:48:45;;;;;;;11.75;2.28;;;8.20;99.90;;;;;;5015451;28;20530;-70
2022/12/30 03:51:11;;;;;;;19.48;3.47;;;8.20;99.90;;;;;;4987162;28;20046;-70
2022/12/30 03:53:37;;;;;;;16.25;3.85;;;8.20;99.90;;;;;;4986192;28;20089;-71
2022/12/30 03:56:02;;;;;;;20.42;2.78;;;8.10;99.90;;;;;;4985701;28;20042;-71
2022/12/30 03:58:28;;;;;;;8.38;2.72;;;8.20;99.90;;;;;;4971775;28;20042;-71
2022/12/30 04:00:54;;;;;;;13.13;2.40;;;8.20;99.90;;;;;;4988978;28;20078;-70
2022/12/30 04:03:20;;;;;;;13.45;2.90;;;8.20;99.90;;;;;;4992021;28;20213;-71
2022/12/30 04:05:45;;;;;;;9.43;2.72;;;8.10;99.90;;;;;;4959950;28;20048;-71
2022/12/30 04:08:11;;;;;;;9.57;2.60;;;8.10;99.90;;;;;;4993939;28;20042;-70
2022/12/30 04:10:37;;;;;;;8.85;2.50;;;8.10;99.90;;;;;;5001062;28;20070;-69
2022/12/30 04:13:03;;;;;;;12.48;2.70;;;8.10;99.90;;;;;;5018051;28;20639;-70
2022/12/30 04:15:29;;;;;;;9.98;2.88;;;8.10;99.90;;;;;;5021131;28;20049;-70
2022/12/30 04:17:57;;;;;;;15.30;2.50;;;8.00;99.90;;;;;;4973952;28;20078;-70
2022/12/30 04:20:23;;;;;;;13.05;2.55;;;7.90;99.90;;;;;;4992715;28;20497;-70
2022/12/30 04:22:49;;;;;;;16.27;4.10;;;7.90;99.90;;;;;;4990009;28;20050;-70
2022/12/30 04:25:15;;;;;;;11.30;2.40;;;8.00;99.90;;;;;;4990291;28;20058;-70
2022/12/30 04:27:40;;;;;;;14.05;2.58;;;7.90;99.90;;;;;;4991056;28;20042;-71
2022/12/30 04:30:07;;;;;;;11.00;2.85;;;7.90;99.90;;;;;;4986127;28;20042;-71
2022/12/30 04:32:33;;;;;;;11.70;2.53;;;7.90;99.90;;;;;;5021266;28;20096;-71
2022/12/30 04:34:59;;;;;;;15.07;3.13;;;7.90;99.90;;;;;;4991882;28;20074;-71
2022/12/30 04:37:24;;;;;;;13.38;3.25;;;7.80;99.90;;;;;;4995032;28;20475;-70
2022/12/30 04:39:52;;;;;;;15.45;3.13;;;7.80;99.90;;;;;;4992682;28;20590;-70
2022/12/30 04:42:18;;;;;;;14.68;2.83;;;7.80;99.90;;;;;;4979090;28;20614;-70
2022/12/30 04:44:44;;;;;;;11.10;2.20;;;7.80;99.90;;;;;;4990711;28;20055;-70
2022/12/30 04:47:10;;;;;;;11.32;2.38;;;7.80;99.90;;;;;;4991840;28;20491;-70
2022/12/30 04:49:36;;;;;;;10.43;2.28;;;7.80;99.90;;;;;;4975940;28;20042;-71
2022/12/30 04:52:01;;;;;;;15.00;2.88;;;7.80;99.90;;;;;;5015156;28;20046;-70
2022/12/30 04:54:27;;;;;;;17.70;3.08;;;7.80;99.90;;;;;;4977392;28;20133;-73
2022/12/30 04:56:53;;;;;;;10.52;2.38;;;7.80;99.90;;;;;;4984757;28;20049;-70
2022/12/30 04:59:19;;;;;;;10.63;2.40;;;7.80;99.90;;;;;;4985765;28;20081;-71
2022/12/30 05:01:44;;;;;;;10.80;2.55;;;7.80;99.90;;;;;;4973406;28;20050;-71
2022/12/30 05:04:10;;;;;;;15.07;2.40;;;7.80;99.90;;;;;;4972465;28;20046;-70
2022/12/30 05:06:36;;;;;;;14.02;2.75;;;7.80;99.90;;;;;;4979360;28;20050;-70
2022/12/30 05:09:02;;;;;;;10.27;2.53;;;7.80;99.90;;;;;;4997364;28;20049;-70
2022/12/30 05:11:29;;;;;;;10.13;2.95;;;7.70;99.90;;;;;;4993765;28;20041;-71
2022/12/30 05:13:55;;;;;;;16.23;3.25;;;7.70;99.90;;;;;;4980427;28;20120;-72
2022/12/30 05:16:21;;;;;;;10.45;2.33;;;7.70;99.90;;;;;;4990809;28;20687;-71
2022/12/30 05:18:46;;;;;;;19.15;3.15;;;7.70;99.90;;;;;;4989352;28;20635;-71
2022/12/30 05:21:12;;;;;;;13.60;2.63;;;7.70;99.90;;;;;;4966449;28;20165;-71
2022/12/30 05:26:22;;;;;;;13.00;2.72;;;7.60;99.90;;;;;;4988511;28;20133;-71
2022/12/30 05:28:48;;;;;;;13.20;2.85;;;7.60;99.90;;;;;;5021700;28;20125;-70
2022/12/30 05:31:14;;;;;;;8.30;2.55;;;7.60;99.90;;;;;;4989787;28;20058;-70
2022/12/30 05:33:40;;;;;;;15.18;2.88;;;7.60;99.90;;;;;;4994847;28;20065;-71
2022/12/30 05:36:06;;;;;;;15.15;2.65;;;7.50;99.90;;;;;;5017659;28;20046;-70
2022/12/30 05:38:32;;;;;;;12.63;2.40;;;7.50;99.90;;;;;;4968178;28;20060;-71
2022/12/30 05:40:58;;;;;;;13.15;2.67;;;7.50;99.90;;;;;;4991433;28;20491;-70
2022/12/30 05:43:24;;;;;;;10.00;2.42;;;7.40;99.90;;;;;;4970839;28;20042;-71
2022/12/30 05:45:50;;;;;;;10.75;2.22;;;7.40;99.90;;;;;;5017630;28;20056;-71
2022/12/30 05:48:16;;;;;;;17.73;3.00;;;7.40;99.90;;;;;;5004848;28;20045;-71
2022/12/30 05:50:42;;;;;;;16.98;2.95;;;7.40;99.90;;;;;;4994795;28;20284;-71
2022/12/30 05:53:09;;;;;;;11.27;2.42;;;7.40;99.90;;;;;;4995425;28;20060;-71
2022/12/30 05:55:35;;;;;;;14.18;2.95;;;7.30;99.90;;;;;;5011198;28;20050;-71
2022/12/30 05:58:02;;;;;;;10.52;2.40;;;7.30;99.90;;;;;;4978560;28;20054;-71
2022/12/30 06:00:28;;;;;;;21.73;3.23;;;7.30;99.90;;;;;;4988819;28;20587;-71
2022/12/30 06:02:56;;;;;;;15.52;3.17;;;7.30;99.90;;;;;;4987938;28;20133;-69
2022/12/30 06:05:22;;;;;;;14.18;2.90;;;7.20;99.90;;;;;;4987984;28;20132;-71
2022/12/30 06:07:48;;;;;;;13.45;2.53;;;7.20;99.90;;;;;;5006217;28;20436;-71
2022/12/30 06:10:14;;;;;;;11.18;2.28;;;7.20;99.90;;;;;;4991019;28;20073;-69
2022/12/30 06:12:40;;;;;;;10.93;2.33;;;7.10;99.90;;;;;;4971044;28;20408;-71
2022/12/30 06:15:06;;;;;;;15.77;2.60;;;7.20;99.90;;;;;;4986573;28;20043;-70
2022/12/30 06:17:32;;;;;;;10.10;2.80;;;7.20;99.90;;;;;;4978921;28;20050;-71
2022/12/30 06:19:58;;;;;;;11.13;2.78;;;7.10;99.90;;;;;;4984652;28;20062;-70
2022/12/30 06:22:23;;;;;;;16.00;2.60;;;7.00;99.90;;;;;;4991991;28;20183;-70
2022/12/30 06:24:50;;;;;;;13.07;2.88;;;7.10;99.90;;;;;;4976981;28;20686;-70
2022/12/30 06:27:17;;;;;;;10.50;2.25;;;7.10;99.90;;;;;;5022996;28;20042;-70
2022/12/30 06:29:43;;;;;;;11.43;2.35;;;7.10;99.90;;;;;;5022738;28;20065;-70
2022/12/30 06:32:08;;;;;;;11.77;2.90;;;7.20;99.90;;;;;;4988846;28;20050;-70
2022/12/30 06:34:34;;;;;;;12.55;2.28;;;7.10;99.90;;;;;;4981877;28;20756;-70
2022/12/30 06:37:01;;;;;;;11.13;2.15;;;7.10;99.90;;;;;;4971226;28;20046;-74
2022/12/30 06:39:26;;;;;;;12.10;1.80;;;7.20;99.90;;;;;;5000746;28;20057;-70
2022/12/30 06:41:52;;;;;;;9.65;2.33;;;7.20;99.90;;;;;;4993816;28;20857;-69
2022/12/30 06:44:18;;;;;;;11.30;3.05;;;7.20;99.90;;;;;;4986390;28;20037;-70
2022/12/30 06:46:44;;;;;;;12.73;2.60;;;7.20;99.90;;;;;;4979190;28;20428;-70
2022/12/30 06:49:11;;;;;;;10.82;2.63;;;7.20;99.90;;;;;;4991066;28;20129;-70
2022/12/30 06:51:37;;;;;;;15.88;3.05;;;7.20;99.90;;;;;;4992237;28;20049;-71
2022/12/30 06:54:02;;;;;;;10.65;2.40;;;7.30;99.90;;;;;;4997328;28;20061;-70
2022/12/30 06:56:29;;;;;;;14.65;3.25;;;7.30;99.90;;;;;;4985997;28;20476;-70
2022/12/30 06:58:55;;;;;;;18.48;3.22;;;7.30;99.90;;;;;;4986815;28;20050;-71
2022/12/30 07:01:21;;;;;;;17.17;2.80;;;7.30;99.90;;;;;;5018380;28;20084;-71
2022/12/30 07:03:47;;;;;;;11.50;2.50;;;7.30;99.90;;;;;;4987409;28;20100;-71
2022/12/30 07:06:12;;;;;;;11.93;2.70;;;7.30;99.90;;;;;;4998811;28;20179;-71
2022/12/30 07:08:38;;;;;;;15.48;3.03;;;7.20;99.90;;;;;;4976103;28;20074;-71
2022/12/30 07:11:04;;;;;;;16.85;3.33;;;7.20;99.90;;;;;;4984923;28;20542;-72
2022/12/30 07:13:30;;;;;;;11.60;2.47;;;7.20;99.90;;;;;;4998340;28;20145;-70
2022/12/30 07:15:56;;;;;;;14.52;2.60;;;7.20;99.90;;;;;;4999963;28;20065;-70
2022/12/30 07:18:22;;;;;;;16.40;2.60;;;7.10;99.90;;;;;;5010386;28;20055;-70
2022/12/30 07:20:48;;;;;;;13.75;3.17;;;7.00;99.90;;;;;;4986450;28;20057;-71
2022/12/30 07:23:14;;;;;;;16.65;2.97;;;7.00;99.90;;;;;;4994008;28;20046;-70
2022/12/30 07:25:39;;;;;;;10.40;2.42;;;6.90;99.90;;;;;;4989746;28;20041;-70
2022/12/30 07:28:05;;;;;;;19.55;3.05;;;6.70;99.90;;;;;;4996082;28;20126;-69
2022/12/30 07:30:31;;;;;;;11.93;2.13;;;6.70;99.90;;;;;;4989276;28;20392;-70
2022/12/30 07:32:57;;;;;;;15.77;2.33;;;6.70;99.90;;;;;;4998786;28;20057;-70
2022/12/30 07:35:23;;;;;;;10.60;1.90;;;6.70;99.90;;;;;;5020014;28;20058;-70
2022/12/30 07:37:50;;;;;;;14.13;2.45;;;6.70;99.90;;;;;;4994000;28;20132;-71
2022/12/30 07:40:15;;;;;;;7.32;1.60;;;6.70;99.90;;;;;;5033740;28;20042;-70
2022/12/30 07:42:41;;;;;;;12.40;3.30;;;6.70;99.90;;;;;;4968391;28;20052;-70
2022/12/30 07:45:08;;;;;;;10.27;1.90;;;6.70;99.90;;;;;;5004040;28;20107;-70
2022/12/30 07:47:33;;;;;;;13.00;2.17;;;6.80;99.90;;;;;;5001576;28;20201;-71
2022/12/30 07:50:00;;;;;;;10.88;2.15;;;6.80;99.90;;;;;;4979970;28;20068;-71
2022/12/30 07:52:26;;;;;;;10.40;2.20;;;6.70;99.90;;;;;;4987413;28;20108;-70
2022/12/30 07:54:51;;;;;;;11.02;2.30;;;6.70;99.90;;;;;;4998748;28;20424;-70
2022/12/30 07:57:17;;;;;;;13.63;2.03;;;6.80;99.90;;;;;;5015591;28;20054;-70
2022/12/30 07:59:43;;;;;;;13.45;2.53;;;6.80;99.90;;;;;;5021138;28;20050;-70
2022/12/30 08:02:12;;;;;;;10.15;2.03;;;6.80;99.90;;;;;;4985619;28;20057;-70
2022/12/30 08:04:38;;;;;;;8.43;1.52;;;6.80;99.90;;;;;;4984900;28;20046;-70
2022/12/30 08:07:04;;;;;;;9.93;2.13;;;6.80;99.90;;;;;;5021514;28;20772;-70
2022/12/30 08:09:29;;;;;;;10.00;1.98;;;6.90;99.90;;;;;;5022114;28;20046;-70
2022/12/30 08:11:55;;;;;;;10.80;1.95;;;6.90;99.90;;;;;;5005245;28;20054;-69
2022/12/30 08:14:21;;;;;;;13.43;3.15;;;7.00;99.90;;;;;;5021834;28;20080;-70
2022/12/30 08:16:47;;;;;;;11.25;2.20;;;7.00;99.90;;;;;;5007848;28;20050;-71
2022/12/30 08:19:12;;;;;;;11.40;2.47;;;7.00;99.90;;;;;;5022315;28;20058;-70
2022/12/30 08:21:38;;;;;;;11.02;2.03;;;7.00;99.90;;;;;;5015449;28;20456;-70
2022/12/30 08:24:04;;;;;;;9.98;2.10;;;7.00;99.90;;;;;;5001793;28;20507;-70
2022/12/30 08:26:30;;;;;;;8.90;2.28;;;7.00;99.90;;;;;;4981147;28;20077;-70
2022/12/30 08:28:56;;;;;;;9.07;1.65;;;7.00;99.90;;;;;;5017938;28;20046;-69
2022/12/30 08:31:26;;;;;;;13.88;2.25;;;7.00;99.90;;;;;;5001377;28;20042;-70
2022/12/30 08:33:52;;;;;;;10.43;2.15;;;7.00;99.90;;;;;;4991930;28;20049;-70
2022/12/30 08:36:20;;;;;;;10.90;2.03;;;7.00;99.90;;;;;;5007960;28;20050;-70
2022/12/30 08:38:47;;;;;;;11.90;2.08;;;7.10;99.90;;;;;;4981693;28;20042;-69
2022/12/30 08:41:23;;;;;;;14.50;2.05;;;7.10;99.90;;;;;;4991519;28;20073;-70
2022/12/30 08:43:50;;;;;;;8.73;2.35;;;7.10;99.90;;;;;;5021795;28;20038;-69
2022/12/30 08:46:16;;;;;;;8.77;2.08;;;7.20;99.90;;;;;;4994130;28;20488;-70
2022/12/30 08:48:44;;;;;;;9.45;1.80;;;7.20;99.90;;;;;;4988921;28;20069;-70
2022/12/30 08:51:10;;;;;;;10.65;2.72;;;7.20;99.90;;;;;;4987135;28;20486;-70
2022/12/30 08:53:36;;;;;;;16.30;2.58;;;7.20;99.90;;;;;;5017697;28;20428;-69
2022/12/30 08:56:11;;;;;;;7.93;1.83;;;7.30;99.90;;;;;;4995595;28;20053;-69
2022/12/30 08:58:36;;;;;;;8.93;1.75;;;7.30;99.90;;;;;;4989001;28;20042;-72
2022/12/30 09:01:13;;;;;;;10.55;2.10;;;7.30;99.90;;;;;;4995090;28;20050;-72
2022/12/30 09:03:38;;;;;;;11.73;2.00;;;7.40;99.90;;;;;;5002436;28;20070;-71
2022/12/30 09:06:05;;;;;;;8.75;1.92;;;7.40;99.90;;;;;;5001410;28;20533;-72
2022/12/30 09:08:31;;;;;;;13.38;2.53;;;7.40;99.90;;;;;;4974648;28;20054;-72
2022/12/30 09:11:01;;;;;;;9.95;1.77;;;7.50;99.90;;;;;;5024252;28;20056;-71
2022/12/30 09:13:27;;;;;;;11.75;2.45;;;7.50;99.90;;;;;;4986483;28;20049;-72
2022/12/30 09:15:53;;;;;;;10.60;2.08;;;7.50;99.90;;;;;;5006530;28;20050;-71
2022/12/30 09:18:27;;;;;;;10.43;1.77;;;7.60;99.90;;;;;;4961163;28;20053;-70
2022/12/30 09:20:55;;;;;;;10.93;2.03;;;7.60;99.90;;;;;;4998968;28;20098;-69
2022/12/30 09:23:21;;;;;;;12.40;2.17;;;7.60;99.90;;;;;;4992157;28;20050;-70
2022/12/30 09:25:47;;;;;;;10.25;1.98;;;7.70;99.90;;;;;;4945065;28;20046;-70
2022/12/30 09:28:12;;;;;;;6.35;1.65;;;7.70;99.90;;;;;;4989382;28;20046;-71
2022/12/30 09:30:38;;;;;;;13.60;3.05;;;7.80;99.90;;;;;;5001970;28;20053;-71
2022/12/30 09:33:04;;;;;;;12.57;2.45;;;7.80;99.90;;;;;;4998255;28;20100;-73
2022/12/30 09:35:30;;;;;;;14.38;3.30;;;7.90;99.90;;;;;;4989680;28;20053;-70
2022/12/30 09:37:56;;;;;;;11.07;1.85;;;7.90;99.90;;;;;;4987543;28;20049;-72
2022/12/30 09:40:56;;;;;;;14.55;3.45;;;7.90;99.90;;;;;;4993693;28;20056;-71
2022/12/30 09:43:30;;;;;;;14.13;2.28;;;7.90;99.90;;;;;;4986187;28;20042;-73
2022/12/30 09:46:02;;;;;;;8.00;1.88;;;8.00;99.90;;;;;;5021070;28;20077;-73
2022/12/30 09:48:32;;;;;;;11.07;2.90;;;8.00;99.90;;;;;;4979671;28;20043;-73
2022/12/30 09:51:01;;;;;;;11.15;2.15;;;8.10;99.90;;;;;;4989488;28;20093;-73
2022/12/30 09:53:48;;;;;;;13.30;3.33;;;8.20;99.90;;;;;;4975679;28;20050;-70
2022/12/30 09:56:19;;;;;;;8.20;2.22;;;8.20;99.90;;;;;;4997797;28;20050;-72
2022/12/30 09:58:45;;;;;;;12.05;2.60;;;8.30;99.90;;;;;;4992085;28;20173;-73
2022/12/30 10:01:18;;;;;;;8.10;2.47;;;8.30;99.90;;;;;;5021561;28;20133;-74
2022/12/30 10:03:43;;;;;;;8.07;1.77;;;8.40;99.90;;;;;;5015465;28;20066;-74
2022/12/30 10:06:41;;;;;;;18.20;2.95;;;8.50;99.90;;;;;;5014509;28;20070;-72
2022/12/30 10:09:22;;;;;;;;;;;8.50;99.90;;;;;;4986119;28;20125;-78
2022/12/30 10:11:48;;;;;;;11.57;1.98;;;8.60;99.90;;;;;;5014179;28;20347;-73
2022/12/30 10:14:35;;;;;;;9.73;2.25;;;8.60;99.90;;;;;;4992800;28;20046;-73
2022/12/30 10:17:45;;;;;;;13.98;2.50;;;8.70;99.90;;;;;;5004383;28;20399;-73
2022/12/30 10:20:46;;;;;;;10.77;1.75;;;8.70;99.90;;;;;;5000358;28;20046;-74
2022/12/30 10:23:15;;;;;;;12.85;2.00;;;8.70;99.90;;;;;;4989283;28;20042;-73
2022/12/30 10:26:31;;;;;;;12.93;2.25;;;8.80;99.90;;;;;;5004399;28;20115;-75
2022/12/30 10:29:16;;;;;;;6.75;2.08;;;8.80;99.90;;;;;;4955167;28;20331;-76
2022/12/30 10:31:42;;;;;;;11.32;1.98;;;9.00;99.90;;;;;;4939297;28;20042;-74
2022/12/30 10:34:19;;;;;;;9.93;2.70;;;9.00;99.90;;;;;;4967861;28;20050;-74
2022/12/30 10:37:01;;;;;;;7.78;1.92;;;9.10;99.90;;;;;;4992986;28;20046;-79
2022/12/30 10:39:34;;;;;;;9.88;1.85;;;9.20;99.90;;;;;;4995620;28;20525;-78
2022/12/30 10:42:32;;;;;;;9.07;2.15;;;9.20;99.90;;;;;;4995106;28;20061;-79
2022/12/30 10:45:18;;;;;;;11.75;2.03;;;9.20;99.90;;;;;;5004672;28;20042;-77
2022/12/30 10:47:47;;;;;;;11.30;1.85;;;9.30;99.90;;;;;;5020994;28;20057;-74
2022/12/30 10:50:45;;;;;;;6.05;1.83;;;9.60;99.90;;;;;;5016186;28;20050;-80
2022/12/30 10:53:19;;;;;;;;;;;9.70;99.90;;;;;;5016906;28;20129;-73
2022/12/30 10:55:52;;;;;;;6.97;1.77;;;9.80;99.90;;;;;;5023055;28;20347;-74
2022/12/30 10:58:24;;;;;;;11.10;1.88;;;10.00;99.90;;;;;;4989556;28;20057;-74
2022/12/30 11:00:50;;;;;;;10.15;1.83;;;9.90;99.90;;;;;;4992354;28;20137;-73
2022/12/30 11:03:31;;;;;;;6.50;1.40;;;9.90;99.90;;;;;;5008066;28;20923;-78
2022/12/30 11:06:23;;;;;;;8.85;2.00;;;10.20;99.90;;;;;;5007979;28;20042;-74
2022/12/30 11:08:49;;;;;;;9.25;1.90;;;10.30;99.90;;;;;;5028258;28;20049;-77
2022/12/30 11:11:15;;;;;;;8.77;1.73;;;10.30;99.90;;;;;;4990026;28;20069;-74
2022/12/30 11:16:30;;;;;;;7.32;1.50;;;10.60;99.90;;;;;;5010998;28;20049;-74
2022/12/30 11:18:57;;;;;;;7.32;1.83;;;10.40;99.90;;;;;;5023720;28;20061;-78
2022/12/30 11:21:30;;;;;;;8.07;1.85;;;10.20;99.90;;;;;;5007832;28;20415;-74
2022/12/30 11:24:00;;;;;;;7.10;1.50;;;10.20;99.90;;;;;;4978000;28;20043;-75
2022/12/30 11:26:27;;;;;;;7.85;1.60;;;10.10;99.90;;;;;;5003910;28;20360;-75
2022/12/30 11:29:06;;;;;;;6.78;1.98;;;10.00;99.90;;;;;;4986440;28;20049;-75
2022/12/30 11:31:36;;;;;;;10.25;1.67;;;10.10;99.90;;;;;;5001559;28;20053;-77
2022/12/30 11:34:03;;;;;;;5.20;1.35;;;10.00;99.90;;;;;;4986095;28;20081;-78
2022/12/30 11:36:30;;;;;;;7.78;1.98;;;10.00;99.90;;;;;;5001773;28;20491;-75
2022/12/30 11:39:05;;;;;;;10.05;1.60;;;9.90;99.90;;;;;;4992120;28;20773;-77
2022/12/30 11:41:31;;;;;;;7.22;1.50;;;9.90;99.90;;;;;;5022459;28;20068;-77
2022/12/30 11:44:00;;;;;;;5.95;1.50;;;10.00;99.90;;;;;;4981861;28;20157;-75
2022/12/30 11:46:40;;;;;;;5.07;1.25;;;10.00;99.90;;;;;;4985658;28;20443;-78
2022/12/30 11:49:29;;;;;;;7.50;1.52;;;9.90;99.90;;;;;;4986504;28;20042;-76
2022/12/30 11:52:06;;;;;;;5.72;1.70;;;9.70;99.90;;;;;;5015514;28;20060;-78
2022/12/30 11:54:33;;;;;;;9.35;1.85;;;9.60;99.90;;;;;;5003263;28;20056;-78
2022/12/30 11:57:30;;;;;;;6.03;1.50;;;9.60;99.90;;;;;;5003160;28;20045;-76
2022/12/30 12:00:00;;;;;;;8.10;1.70;;;9.50;99.90;;;;;;5015029;28;20050;-74
2022/12/30 12:02:34;;;;;;;5.55;1.48;;;9.70;99.90;;;;;;4974730;28;20355;-75
2022/12/30 12:05:00;;;;;;;5.50;1.58;;;9.80;99.90;;;;;;4978954;28;20084;-76
2022/12/30 12:07:42;;;;;;;8.10;2.08;;;9.90;99.90;;;;;;5013975;28;20129;-76
2022/12/30 12:10:15;;;;;;;6.18;1.50;;;9.90;99.90;;;;;;4998063;28;20068;-76
2022/12/30 12:12:49;;;;;;;7.53;1.30;;;9.90;99.90;;;;;;4993168;28;20046;-75
2022/12/30 12:15:20;;;;;;;5.05;1.08;;;10.20;99.90;;;;;;5006016;28;20053;-77
2022/12/30 12:17:52;;;;;;;4.97;1.10;;;10.30;99.90;;;;;;4998011;28;20430;-75
2022/12/30 12:20:33;;;;;;;8.45;1.40;;;10.40;99.90;;;;;;5040093;28;20041;-76
2022/12/30 12:23:26;;;;;;;7.43;1.45;;;10.30;99.90;;;;;;4996856;28;20593;-76
2022/12/30 12:26:15;;;;;;;7.75;1.80;;;10.40;99.90;;;;;;5018854;28;20092;-75
2022/12/30 12:28:42;;;;;;;4.35;1.30;;;10.30;99.90;;;;;;5014818;28;20038;-74
2022/12/30 12:31:16;;;;;;;5.35;1.25;;;10.30;99.90;;;;;;5018047;28;20618;-74
2022/12/30 12:34:09;;;;;;;5.50;1.45;;;10.20;99.90;;;;;;5019803;28;20295;-75
2022/12/30 12:37:10;;;;;;;6.15;1.40;;;10.20;99.90;;;;;;4976466;28;20042;-76
2022/12/30 12:40:01;;;;;;;7.10;1.88;;;10.30;99.90;;;;;;5010789;28;20168;-75
2022/12/30 12:42:42;;;;;;;6.93;1.70;;;10.40;99.90;;;;;;5016464;28;20042;-76
2022/12/30 12:45:33;;;;;;;4.13;1.25;;;10.10;99.90;;;;;;5010309;28;20060;-77
2022/12/30 12:48:29;;;;;;;5.13;1.45;;;10.20;99.90;;;;;;5022962;28;20057;-77
2022/12/30 12:51:01;;;;;;;5.65;1.30;;;10.10;99.90;;;;;;5019910;28;20132;-75
2022/12/30 12:54:12;;;;;;;7.45;1.38;;;9.90;99.90;;;;;;5001511;28;20046;-76
2022/12/30 12:56:50;;;;;;;5.65;1.23;;;9.90;99.90;;;;;;4975794;28;20049;-76
2022/12/30 12:59:45;;;;;;;3.67;1.05;;;9.80;99.90;;;;;;5019638;28;20050;-78
2022/12/30 13:02:48;;;;;;;5.88;1.08;;;9.70;99.90;;;;;;4971043;28;20056;-77
2022/12/30 13:05:26;;;;;;;6.35;1.02;;;9.60;99.90;;;;;;5006214;28;20216;-77
2022/12/30 13:08:06;;;;;;;5.50;1.88;;;9.60;99.90;;;;;;4998563;28;20053;-75
2022/12/30 13:10:43;;;;;;;5.90;1.80;;;9.50;99.90;;;;;;5001513;28;20418;-79
2022/12/30 13:13:35;;;;;;;5.45;1.30;;;9.40;99.90;;;;;;5053977;28;20048;-76
2022/12/30 13:16:28;;;;;;;6.82;1.63;;;9.40;99.90;;;;;;5000512;28;20049;-77
2022/12/30 13:18:55;;;;;;;4.00;0.98;;;9.30;99.90;;;;;;5000981;28;20096;-75
2022/12/30 13:21:25;;;;;;;8.05;1.30;;;9.30;99.90;;;;;;5002811;28;20050;-76
2022/12/30 13:23:57;;;;;;;5.97;1.20;;;9.30;99.90;;;;;;4985990;28;20050;-77
2022/12/30 13:26:23;;;;;;;9.02;1.40;;;9.20;99.90;;;;;;4992606;28;20054;-78
2022/12/30 13:29:00;;;;;;;5.95;2.13;;;9.10;99.90;;;;;;5003799;28;20358;-76
2022/12/30 13:31:53;;;;;;;5.90;1.67;;;9.10;99.90;;;;;;5026797;28;20060;-76
2022/12/30 13:34:26;;;;;;;8.05;1.80;;;9.20;99.90;;;;;;4976332;28;20046;-77
2022/12/30 13:36:57;;;;;;;7.97;1.52;;;9.10;99.90;;;;;;5006037;28;20050;-75
2022/12/30 13:40:06;;;;;;;5.45;1.63;;;9.00;99.90;;;;;;5001009;28;20161;-75
2022/12/30 13:43:04;;;;;;;3.88;1.23;;;9.00;99.90;;;;;;4975882;28;20435;-76
2022/12/30 13:45:44;;;;;;;4.55;1.20;;;8.90;99.90;;;;;;5005574;28;20072;-78
2022/12/30 13:48:12;;;;;;;7.07;1.60;;;9.00;99.90;;;;;;5017313;28;20061;-75
2022/12/30 13:50:40;;;;;;;9.57;1.73;;;8.90;99.90;;;;;;5004165;28;20049;-76
2022/12/30 13:53:26;;;;;;;9.93;1.98;;;8.90;99.90;;;;;;5001800;28;20480;-76
2022/12/30 13:55:51;;;;;;;5.82;1.33;;;8.90;99.90;;;;;;5000833;28;20137;-76
2022/12/30 13:58:32;;;;;;;5.93;1.67;;;8.90;99.90;;;;;;4998005;28;20101;-75
2022/12/30 14:01:20;;;;;;;11.10;1.92;;;8.80;99.90;;;;;;5002129;28;20454;-74
2022/12/30 14:03:50;;;;;;;7.53;1.67;;;8.80;99.90;;;;;;5022355;28;20037;-76
2022/12/30 14:06:40;;;;;;;8.85;1.67;;;8.80;99.90;;;;;;4987815;28;20046;-76
2022/12/30 14:09:20;;;;;;;7.68;1.58;;;8.70;99.90;;;;;;5003777;28;20104;-73